Time;durP1;ratioP1;P1;durP2;ratioP2;P2;SDS_P1;SDS_P2;PMS_P1;PMS_P2;Temp;Humidity;BMP_temperature;BMP_pressure;BME280_temperature;BME280_humidity;BME280_pressure;Samples;Min_cycle;Max_cycle;Signal;HPM_P1;HPM_P2
2022/10/01 00:01:04;;;;;;;4.65;3.60;;;;;;;;;;6216809;23;20604;-93
2022/10/01 00:03:31;;;;;;;5.40;4.97;;;;;;;;;;6217248;23;20082;-93
2022/10/01 00:06:00;;;;;;;5.32;4.65;;;;;;;;;;6217142;23;20423;-94
2022/10/01 00:08:27;;;;;;;4.95;4.20;;;;;;;;;;6216913;23;20024;-93
2022/10/01 00:10:54;;;;;;;5.43;4.15;;;;;;;;;;6217186;23;20130;-92
2022/10/01 00:13:20;;;;;;;5.50;5.00;;;;;;;;;;6216758;23;20020;-92
2022/10/01 00:15:47;;;;;;;6.40;4.95;;;;;;;;;;6217129;23;20024;-92
2022/10/01 00:18:13;;;;;;;7.03;4.00;;;;;;;;;;6217107;23;20025;-92
2022/10/01 00:20:42;;;;;;;5.43;4.82;;;;;;;;;;6217094;23;20078;-92
2022/10/01 00:23:10;;;;;;;4.70;3.70;;;;;;;;;;6217035;23;20025;-92
2022/10/01 00:25:36;;;;;;;5.18;4.10;;;;;;;;;;6216635;23;20024;-92
2022/10/01 00:28:03;;;;;;;5.93;4.32;;;;;;;;;;6217059;23;20044;-92
2022/10/01 00:30:29;;;;;;;4.65;4.15;;;;;;;;;;6216623;23;20055;-92
2022/10/01 00:32:56;;;;;;;11.68;5.03;;;;;;;;;;6217063;23;20016;-93
2022/10/01 00:35:22;;;;;;;6.00;4.57;;;;;;;;;;6216373;23;20025;-92
2022/10/01 00:37:51;;;;;;;6.03;5.13;;;;;;;;;;6216569;23;20032;-93
2022/10/01 00:40:19;;;;;;;5.22;4.65;;;;;;;;;;6216536;23;20048;-93
2022/10/01 00:42:46;;;;;;;4.65;3.97;;;;;;;;;;6216791;23;20099;-92
2022/10/01 00:45:14;;;;;;;5.28;3.83;;;;;;;;;;6216390;23;20319;-92
2022/10/01 00:47:42;;;;;;;4.93;4.28;;;;;;;;;;6216887;23;20024;-92
2022/10/01 00:50:10;;;;;;;6.55;4.20;;;;;;;;;;6216645;23;20024;-93
2022/10/01 00:52:39;;;;;;;7.57;4.82;;;;;;;;;;6216433;23;20527;-92
2022/10/01 00:55:07;;;;;;;4.55;4.10;;;;;;;;;;6217011;23;20096;-93
2022/10/01 00:57:35;;;;;;;5.30;4.20;;;;;;;;;;6216721;23;20016;-93
2022/10/01 01:00:04;;;;;;;6.43;4.30;;;;;;;;;;6216304;23;20075;-93
2022/10/01 01:02:31;;;;;;;4.88;3.97;;;;;;;;;;6216333;23;20542;-92
2022/10/01 01:04:58;;;;;;;6.82;4.82;;;;;;;;;;6216679;23;20017;-92
2022/10/01 01:07:24;;;;;;;7.38;4.43;;;;;;;;;;6216657;23;20021;-91
2022/10/01 01:09:52;;;;;;;5.05;4.20;;;;;;;;;;6216311;23;20025;-91
2022/10/01 01:12:26;;;;;;;5.07;3.65;;;;;;;;;;6216190;23;20059;-92
2022/10/01 01:14:58;;;;;;;4.80;4.07;;;;;;;;;;6216032;23;20024;-91
2022/10/01 01:17:29;;;;;;;6.43;3.65;;;;;;;;;;6216168;23;20465;-91
2022/10/01 01:20:06;;;;;;;5.07;4.05;;;;;;;;;;6216526;23;20071;-91
2022/10/01 01:22:36;;;;;;;6.07;3.50;;;;;;;;;;6216582;23;20103;-91
2022/10/01 01:25:06;;;;;;;5.13;4.22;;;;;;;;;;6216286;23;20017;-91
2022/10/01 01:27:33;;;;;;;;;;;;;;;;;;6216607;23;20024;-91
2022/10/01 01:30:03;;;;;;;4.97;4.47;;;;;;;;;;6216055;23;19919;-92
2022/10/01 01:32:31;;;;;;;4.72;3.88;;;;;;;;;;6215997;23;20083;-91
2022/10/01 01:35:01;;;;;;;4.57;3.75;;;;;;;;;;6216003;23;20020;-91
2022/10/01 01:37:30;;;;;;;5.72;5.13;;;;;;;;;;6216446;23;20071;-92
2022/10/01 01:39:58;;;;;;;5.47;3.80;;;;;;;;;;6216358;23;20025;-91
2022/10/01 01:42:27;;;;;;;5.47;4.10;;;;;;;;;;6215938;23;20074;-91
2022/10/01 01:44:57;;;;;;;4.78;3.88;;;;;;;;;;6215794;23;20016;-91
2022/10/01 01:47:27;;;;;;;4.10;3.35;;;;;;;;;;6216311;23;20343;-92
2022/10/01 01:49:53;;;;;;;6.60;4.82;;;;;;;;;;6216332;23;20095;-92
2022/10/01 01:52:20;;;;;;;5.28;4.75;;;;;;;;;;6215807;23;20327;-93
2022/10/01 01:54:48;;;;;;;7.88;5.10;;;;;;;;;;6215859;23;20027;-91
2022/10/01 01:57:17;;;;;;;6.57;4.70;;;;;;;;;;6216314;23;20020;-92
2022/10/01 01:59:43;;;;;;;4.30;3.75;;;;;;;;;;6215829;23;20031;-91
2022/10/01 02:02:12;;;;;;;4.80;3.45;;;;;;;;;;6215546;23;20496;-92
2022/10/01 02:04:42;;;;;;;6.15;5.07;;;;;;;;;;6215641;23;20016;-91
2022/10/01 02:07:23;;;;;;;5.53;3.65;;;;;;;;;;6215743;23;20492;-90
2022/10/01 02:09:52;;;;;;;5.63;4.32;;;;;;;;;;6212286;23;20080;-91
2022/10/01 02:12:22;;;;;;;5.28;3.63;;;;;;;;;;6215734;23;20071;-91
2022/10/01 02:14:52;;;;;;;4.93;3.92;;;;;;;;;;6216047;23;20021;-91
2022/10/01 02:17:24;;;;;;;5.00;3.67;;;;;;;;;;6215766;23;20462;-91
2022/10/01 02:19:56;;;;;;;5.57;4.22;;;;;;;;;;6216087;23;20047;-91
2022/10/01 02:22:26;;;;;;;6.85;4.32;;;;;;;;;;6215749;23;20029;-93
2022/10/01 02:24:55;;;;;;;5.28;4.35;;;;;;;;;;6215580;23;20465;-92
2022/10/01 02:27:25;;;;;;;5.00;3.85;;;;;;;;;;6216181;23;20029;-93
2022/10/01 02:29:53;;;;;;;5.68;4.93;;;;;;;;;;6216083;23;20082;-92
2022/10/01 02:32:20;;;;;;;5.20;4.18;;;;;;;;;;6216013;23;20017;-93
2022/10/01 02:34:48;;;;;;;5.03;3.90;;;;;;;;;;6222866;23;20055;-91
2022/10/01 02:37:16;;;;;;;6.32;3.95;;;;;;;;;;6225685;23;20027;-91
2022/10/01 02:39:43;;;;;;;5.70;3.80;;;;;;;;;;6216695;23;20083;-92
2022/10/01 02:42:12;;;;;;;8.05;4.35;;;;;;;;;;6216434;23;20028;-93
2022/10/01 02:44:41;;;;;;;7.05;5.18;;;;;;;;;;6216206;23;20083;-92
2022/10/01 02:47:09;;;;;;;3.22;2.78;;;;;;;;;;6215964;23;20059;-94
2022/10/01 02:49:40;;;;;;;6.47;3.70;;;;;;;;;;6215771;23;20082;-92
2022/10/01 02:52:08;;;;;;;5.18;4.03;;;;;;;;;;6215771;23;20087;-91
2022/10/01 02:54:38;;;;;;;5.88;5.03;;;;;;;;;;6215934;23;20028;-92
2022/10/01 02:57:23;;;;;;;5.00;4.43;;;;;;;;;;6216087;23;20024;-92
2022/10/01 02:59:50;;;;;;;7.18;4.60;;;;;;;;;;6215889;23;20048;-94
2022/10/01 03:02:16;;;;;;;7.45;4.60;;;;;;;;;;6215876;23;20078;-92
2022/10/01 03:04:43;;;;;;;8.07;4.63;;;;;;;;;;6215786;23;20021;-93
2022/10/01 03:07:09;;;;;;;8.43;5.82;;;;;;;;;;6215571;23;20461;-92
2022/10/01 03:09:37;;;;;;;6.30;5.10;;;;;;;;;;6215893;23;20021;-92
2022/10/01 03:12:05;;;;;;;6.97;4.45;;;;;;;;;;6215686;23;20091;-92
2022/10/01 03:14:32;;;;;;;5.90;5.30;;;;;;;;;;6217105;23;20024;-92
2022/10/01 03:16:59;;;;;;;5.60;4.57;;;;;;;;;;6217326;23;20449;-91
2022/10/01 03:19:26;;;;;;;5.85;4.28;;;;;;;;;;6217333;23;20033;-91
2022/10/01 03:21:52;;;;;;;6.47;4.57;;;;;;;;;;6217824;23;20079;-92
2022/10/01 03:24:19;;;;;;;6.03;4.85;;;;;;;;;;6217234;23;20021;-91
2022/10/01 03:26:47;;;;;;;6.25;5.25;;;;;;;;;;6217490;23;20075;-91
2022/10/01 03:29:14;;;;;;;5.85;4.35;;;;;;;;;;6217590;23;20083;-91
2022/10/01 03:31:40;;;;;;;6.82;3.88;;;;;;;;;;6217275;23;20075;-92
2022/10/01 03:34:07;;;;;;;5.35;4.40;;;;;;;;;;6216830;23;20082;-92
2022/10/01 03:36:33;;;;;;;5.43;3.75;;;;;;;;;;6217900;23;20021;-91
2022/10/01 03:39:00;;;;;;;5.55;4.30;;;;;;;;;;6217205;23;20028;-91
2022/10/01 03:41:26;;;;;;;6.15;4.45;;;;;;;;;;6217863;23;20055;-92
2022/10/01 03:43:54;;;;;;;5.57;2.45;;;;;;;;;;6217300;23;20032;-94
2022/10/01 03:46:21;;;;;;;5.53;4.40;;;;;;;;;;6217103;23;20461;-94
2022/10/01 03:48:48;;;;;;;6.65;4.45;;;;;;;;;;6217457;23;20028;-92
2022/10/01 03:51:14;;;;;;;3.20;2.83;;;;;;;;;;6217896;23;20099;-95
2022/10/01 03:53:41;;;;;;;6.28;4.35;;;;;;;;;;6217538;23;20024;-93
2022/10/01 03:56:07;;;;;;;6.03;5.07;;;;;;;;;;6217012;23;20485;-93
2022/10/01 03:58:34;;;;;;;9.90;5.28;;;;;;;;;;6217302;23;20071;-91
2022/10/01 04:01:02;;;;;;;5.65;4.78;;;;;;;;;;6216978;23;20020;-91
2022/10/01 04:03:29;;;;;;;7.18;6.47;;;;;;;;;;6217032;23;20385;-91
2022/10/01 04:05:56;;;;;;;6.80;4.72;;;;;;;;;;6216760;23;20533;-91
2022/10/01 04:08:23;;;;;;;6.03;4.18;;;;;;;;;;6216947;23;20024;-91
2022/10/01 04:10:49;;;;;;;6.40;5.15;;;;;;;;;;6217248;23;20055;-93
2022/10/01 04:13:16;;;;;;;6.72;5.35;;;;;;;;;;6217158;23;20021;-92
2022/10/01 04:15:43;;;;;;;5.97;4.70;;;;;;;;;;6217441;23;20120;-93
2022/10/01 04:18:11;;;;;;;7.72;4.97;;;;;;;;;;6217124;23;20021;-92
2022/10/01 04:20:38;;;;;;;6.47;5.07;;;;;;;;;;6217003;23;20020;-91
2022/10/01 04:23:04;;;;;;;6.90;5.53;;;;;;;;;;6217064;23;20070;-90
2022/10/01 04:25:31;;;;;;;6.78;4.95;;;;;;;;;;6216964;23;20016;-91
2022/10/01 04:27:58;;;;;;;7.95;5.57;;;;;;;;;;6217368;23;20025;-92
2022/10/01 04:30:25;;;;;;;6.28;4.82;;;;;;;;;;6216726;23;20405;-92
2022/10/01 04:32:52;;;;;;;8.50;4.82;;;;;;;;;;6216982;23;20059;-91
2022/10/01 04:35:20;;;;;;;8.40;5.18;;;;;;;;;;6217144;23;20025;-93
2022/10/01 04:37:46;;;;;;;6.88;5.50;;;;;;;;;;6216971;23;20016;-93
2022/10/01 04:40:13;;;;;;;7.72;5.60;;;;;;;;;;6216549;23;20075;-92
2022/10/01 04:42:40;;;;;;;7.60;5.32;;;;;;;;;;6217047;23;20029;-91
2022/10/01 04:45:07;;;;;;;6.28;4.50;;;;;;;;;;6216423;23;20052;-90
2022/10/01 04:47:34;;;;;;;9.52;5.70;;;;;;;;;;6217030;23;20025;-91
2022/10/01 04:50:00;;;;;;;6.70;4.65;;;;;;;;;;6216771;23;20459;-91
2022/10/01 04:52:28;;;;;;;5.28;4.47;;;;;;;;;;6216529;23;20082;-92
2022/10/01 04:54:55;;;;;;;6.50;4.65;;;;;;;;;;6216391;23;20381;-93
2022/10/01 04:57:21;;;;;;;5.40;4.45;;;;;;;;;;6215586;23;20024;-92
2022/10/01 04:59:49;;;;;;;5.38;4.82;;;;;;;;;;6215878;23;20024;-93
2022/10/01 05:02:16;;;;;;;7.75;4.70;;;;;;;;;;6216369;23;20021;-93
2022/10/01 05:04:43;;;;;;;7.78;5.25;;;;;;;;;;6216622;23;20030;-93
2022/10/01 05:07:09;;;;;;;7.43;5.53;;;;;;;;;;6216549;23;20028;-93
2022/10/01 05:09:40;;;;;;;7.47;5.00;;;;;;;;;;6216670;23;20024;-94
2022/10/01 05:12:07;;;;;;;6.55;5.65;;;;;;;;;;6221010;23;20024;-92
2022/10/01 05:14:34;;;;;;;7.55;6.35;;;;;;;;;;6215900;23;20044;-90
2022/10/01 05:17:00;;;;;;;7.07;5.50;;;;;;;;;;6216161;23;20075;-92
2022/10/01 05:19:28;;;;;;;6.78;5.03;;;;;;;;;;6215798;23;20020;-92
2022/10/01 05:21:54;;;;;;;7.18;6.10;;;;;;;;;;6215477;23;20063;-91
2022/10/01 05:24:21;;;;;;;9.00;6.03;;;;;;;;;;6215674;23;20458;-91
2022/10/01 05:26:49;;;;;;;5.93;4.95;;;;;;;;;;6215760;23;20024;-92
2022/10/01 05:29:17;;;;;;;5.10;4.35;;;;;;;;;;6215667;23;20078;-91
2022/10/01 05:31:44;;;;;;;8.55;7.75;;;;;;;;;;6216204;23;20424;-92
2022/10/01 05:34:10;;;;;;;8.45;6.38;;;;;;;;;;6215837;23;20021;-92
2022/10/01 05:36:37;;;;;;;7.53;5.10;;;;;;;;;;6215117;23;20400;-91
2022/10/01 05:39:03;;;;;;;5.70;5.20;;;;;;;;;;6215947;23;20028;-92
2022/10/01 05:41:31;;;;;;;8.23;5.55;;;;;;;;;;6216052;23;20021;-92
2022/10/01 05:43:58;;;;;;;4.60;3.95;;;;;;;;;;6215731;23;20024;-92
2022/10/01 05:46:25;;;;;;;8.70;4.65;;;;;;;;;;6216018;23;20020;-95
2022/10/01 05:48:52;;;;;;;4.85;4.28;;;;;;;;;;6216238;23;20021;-95
2022/10/01 05:51:18;;;;;;;5.22;4.72;;;;;;;;;;6216792;23;20405;-96
2022/10/01 05:53:47;;;;;;;7.43;4.72;;;;;;;;;;6216098;23;20090;-93
2022/10/01 05:56:14;;;;;;;7.75;5.18;;;;;;;;;;6215290;23;20055;-94
2022/10/01 05:58:40;;;;;;;6.13;4.80;;;;;;;;;;6214871;23;20027;-94
2022/10/01 06:01:08;;;;;;;8.68;6.68;;;;;;;;;;6215083;23;20438;-91
2022/10/01 06:03:35;;;;;;;8.68;7.80;;;;;;;;;;6214996;23;20024;-93
2022/10/01 06:06:04;;;;;;;7.32;6.05;;;;;;;;;;6214892;23;20023;-95
2022/10/01 06:08:30;;;;;;;7.68;6.07;;;;;;;;;;6215858;23;20048;-93
2022/10/01 06:11:00;;;;;;;11.30;6.22;;;;;;;;;;6215892;23;20323;-93
2022/10/01 06:13:27;;;;;;;9.52;7.05;;;;;;;;;;6215247;23;20075;-93
2022/10/01 06:15:53;;;;;;;8.90;6.18;;;;;;;;;;6215506;23;20028;-96
2022/10/01 06:18:22;;;;;;;13.85;5.80;;;;;;;;;;6215335;23;20024;-93
2022/10/01 06:20:49;;;;;;;11.43;6.57;;;;;;;;;;6215807;23;20381;-95
2022/10/01 06:23:15;;;;;;;12.25;7.22;;;;;;;;;;6215940;23;20025;-93
2022/10/01 06:25:43;;;;;;;13.52;6.70;;;;;;;;;;6215305;23;20074;-92
2022/10/01 06:28:13;;;;;;;11.25;7.85;;;;;;;;;;6215088;23;20039;-93
2022/10/01 06:30:40;;;;;;;5.68;5.13;;;;;;;;;;6215510;23;20025;-94
2022/10/01 06:33:07;;;;;;;8.27;6.45;;;;;;;;;;6225243;23;20021;-91
2022/10/01 06:35:36;;;;;;;9.52;7.53;;;;;;;;;;6224258;23;20031;-92
2022/10/01 06:38:03;;;;;;;6.43;5.10;;;;;;;;;;6217641;23;20020;-94
2022/10/01 06:40:30;;;;;;;8.43;7.35;;;;;;;;;;6216490;23;20027;-93
2022/10/01 06:42:57;;;;;;;8.55;6.82;;;;;;;;;;6215414;23;20452;-91
2022/10/01 06:45:24;;;;;;;9.25;7.25;;;;;;;;;;6215600;23;20075;-92
2022/10/01 06:47:53;;;;;;;10.60;6.55;;;;;;;;;;6215900;23;20527;-92
2022/10/01 06:50:19;;;;;;;7.78;5.82;;;;;;;;;;6218066;23;20024;-93
2022/10/01 06:52:50;;;;;;;7.78;5.97;;;;;;;;;;6217717;23;20020;-94
2022/10/01 06:55:17;;;;;;;10.90;6.18;;;;;;;;;;6220514;23;20084;-93
2022/10/01 06:57:44;;;;;;;12.85;7.18;;;;;;;;;;6217858;23;20025;-94
2022/10/01 07:00:11;;;;;;;7.95;6.65;;;;;;;;;;6217470;23;20457;-94
2022/10/01 07:02:38;;;;;;;7.68;6.68;;;;;;;;;;6217298;23;20021;-93
2022/10/01 07:05:05;;;;;;;6.78;5.68;;;;;;;;;;6217421;23;20103;-96
2022/10/01 07:07:32;;;;;;;8.07;7.25;;;;;;;;;;6218822;23;20373;-96
2022/10/01 07:10:00;;;;;;;5.82;4.80;;;;;;;;;;6221197;23;20079;-94
2022/10/01 07:12:27;;;;;;;13.38;8.23;;;;;;;;;;6218680;23;20326;-94
2022/10/01 07:14:54;;;;;;;9.65;7.40;;;;;;;;;;6218433;23;20090;-94
2022/10/01 07:17:20;;;;;;;10.60;8.32;;;;;;;;;;6217901;23;20454;-94
2022/10/01 07:19:47;;;;;;;8.60;7.75;;;;;;;;;;6219085;23;20024;-95
2022/10/01 07:22:14;;;;;;;10.65;9.32;;;;;;;;;;6217182;23;20083;-94
2022/10/01 07:24:40;;;;;;;12.40;8.88;;;;;;;;;;6218260;23;20017;-94
2022/10/01 07:27:08;;;;;;;10.25;8.35;;;;;;;;;;6216868;23;20017;-93
2022/10/01 07:29:34;;;;;;;11.43;8.38;;;;;;;;;;6217064;23;20056;-95
2022/10/01 07:32:07;;;;;;;12.77;9.23;;;;;;;;;;6217067;23;20024;-94
2022/10/01 07:34:34;;;;;;;10.93;9.45;;;;;;;;;;6216657;23;20023;-94
2022/10/01 07:37:00;;;;;;;8.80;7.03;;;;;;;;;;6217118;23;20020;-95
2022/10/01 07:39:27;;;;;;;14.80;8.02;;;;;;;;;;6216886;23;20067;-94
2022/10/01 07:41:53;;;;;;;14.25;9.13;;;;;;;;;;6217029;23;20531;-94
2022/10/01 07:44:21;;;;;;;8.57;7.70;;;;;;;;;;6217560;23;20083;-95
2022/10/01 07:46:48;;;;;;;8.70;6.72;;;;;;;;;;6216604;23;20020;-95
2022/10/01 07:49:15;;;;;;;11.48;7.32;;;;;;;;;;6216490;23;20082;-93
2022/10/01 07:51:43;;;;;;;8.27;7.10;;;;;;;;;;6215642;23;20056;-95
2022/10/01 07:54:09;;;;;;;10.50;8.40;;;;;;;;;;6216014;23;20064;-95
2022/10/01 07:56:36;;;;;;;12.77;9.18;;;;;;;;;;6216453;23;20016;-95
2022/10/01 07:59:03;;;;;;;13.75;7.78;;;;;;;;;;6216118;23;20016;-95
2022/10/01 08:01:32;;;;;;;6.93;5.40;;;;;;;;;;6219032;23;20403;-96
2022/10/01 08:03:59;;;;;;;6.72;5.78;;;;;;;;;;6226648;23;20031;-96
2022/10/01 08:06:25;;;;;;;7.40;5.45;;;;;;;;;;6221391;23;20357;-96
2022/10/01 08:08:52;;;;;;;5.97;4.68;;;;;;;;;;6220191;23;20017;-94
2022/10/01 08:11:19;;;;;;;11.18;5.72;;;;;;;;;;6219798;23;20024;-95
2022/10/01 08:13:46;;;;;;;8.50;6.70;;;;;;;;;;6223869;23;20031;-96
2022/10/01 08:16:13;;;;;;;6.57;5.88;;;;;;;;;;6229071;23;20043;-96
2022/10/01 08:18:41;;;;;;;9.00;5.38;;;;;;;;;;6227169;22;20480;-96
2022/10/01 08:21:08;;;;;;;6.93;5.03;;;;;;;;;;6222719;23;20020;-96
2022/10/01 08:23:35;;;;;;;5.85;4.78;;;;;;;;;;6219119;23;20480;-94
2022/10/01 08:26:03;;;;;;;5.85;4.07;;;;;;;;;;6222272;23;20051;-95
2022/10/01 08:28:29;;;;;;;7.65;6.22;;;;;;;;;;6225274;23;20385;-96
2022/10/01 08:30:56;;;;;;;7.90;4.38;;;;;;;;;;6227983;23;20056;-95
2022/10/01 08:33:23;;;;;;;6.88;4.93;;;;;;;;;;6223797;23;20441;-95
2022/10/01 08:35:51;;;;;;;11.07;4.07;;;;;;;;;;6218888;23;20048;-96
2022/10/01 08:38:18;;;;;;;12.30;5.55;;;;;;;;;;6219544;23;20075;-96
2022/10/01 09:01:58;;;;;;;9.38;6.90;;;;;;;;;;6251009;22;20024;-96
2022/10/01 09:07:04;;;;;;;12.43;7.95;;;;;;;;;;6215917;22;20067;-96
2022/10/01 09:09:36;;;;;;;12.45;8.82;;;;;;;;;;6223413;23;20028;-96
2022/10/01 09:12:14;;;;;;;13.82;8.68;;;;;;;;;;6217646;23;20062;-96
2022/10/01 09:14:55;;;;;;;11.55;9.38;;;;;;;;;;6217563;23;20096;-96
2022/10/01 09:17:32;;;;;;;12.82;8.77;;;;;;;;;;6211496;23;20024;-93
2022/10/01 09:20:01;;;;;;;11.63;8.93;;;;;;;;;;6214874;23;20024;-89
2022/10/01 09:22:33;;;;;;;14.18;8.05;;;;;;;;;;6215152;23;20107;-89
2022/10/01 09:25:02;;;;;;;11.50;8.68;;;;;;;;;;6214845;23;20028;-90
2022/10/01 09:27:28;;;;;;;11.10;8.27;;;;;;;;;;6215044;23;20028;-90
2022/10/01 09:29:59;;;;;;;9.90;7.93;;;;;;;;;;6215088;23;20020;-90
2022/10/01 09:32:30;;;;;;;11.50;8.85;;;;;;;;;;6215026;23;20031;-89
2022/10/01 09:34:59;;;;;;;15.07;8.73;;;;;;;;;;6214539;23;20071;-90
2022/10/01 09:37:28;;;;;;;12.63;7.97;;;;;;;;;;6214546;23;20029;-92
2022/10/01 09:40:04;;;;;;;11.30;8.30;;;;;;;;;;6215008;23;20021;-90
2022/10/01 09:42:31;;;;;;;13.32;8.75;;;;;;;;;;6215002;23;20059;-89
2022/10/01 09:44:57;;;;;;;9.65;8.13;;;;;;;;;;6214721;23;20025;-89
2022/10/01 09:47:25;;;;;;;11.07;8.20;;;;;;;;;;6215011;23;20021;-90
2022/10/01 09:49:53;;;;;;;7.75;6.78;;;;;;;;;;6214357;23;20058;-90
2022/10/01 09:52:25;;;;;;;9.07;6.05;;;;;;;;;;6214263;23;20024;-90
2022/10/01 09:54:54;;;;;;;8.13;6.00;;;;;;;;;;6213599;23;20361;-90
2022/10/01 09:57:23;;;;;;;7.82;5.93;;;;;;;;;;6214547;23;20021;-89
2022/10/01 09:59:55;;;;;;;10.50;6.10;;;;;;;;;;6214915;23;20021;-89
2022/10/01 10:02:23;;;;;;;7.85;6.00;;;;;;;;;;6214692;23;20079;-89
2022/10/01 10:05:00;;;;;;;8.52;5.65;;;;;;;;;;6214219;23;20526;-88
2022/10/01 10:07:26;;;;;;;8.82;6.68;;;;;;;;;;6214754;23;20156;-88
2022/10/01 10:09:53;;;;;;;9.45;7.38;;;;;;;;;;6214765;23;20086;-91
2022/10/01 10:12:25;;;;;;;11.38;8.27;;;;;;;;;;6213953;23;20024;-90
2022/10/01 10:14:51;;;;;;;10.80;7.43;;;;;;;;;;6213168;23;20102;-91
2022/10/01 10:17:20;;;;;;;9.00;7.25;;;;;;;;;;6211576;23;20021;-90
2022/10/01 10:19:48;;;;;;;9.27;6.07;;;;;;;;;;6215332;23;20091;-91
2022/10/01 10:22:22;;;;;;;9.02;5.72;;;;;;;;;;6215158;23;20029;-90
2022/10/01 10:24:48;;;;;;;10.38;6.20;;;;;;;;;;6215479;23;20027;-88
2022/10/01 10:27:24;;;;;;;9.02;5.78;;;;;;;;;;6214627;23;20017;-89
2022/10/01 10:30:01;;;;;;;7.90;5.43;;;;;;;;;;6214847;23;20033;-89
2022/10/01 10:32:28;;;;;;;8.32;5.93;;;;;;;;;;6214551;23;20047;-89
2022/10/01 10:34:56;;;;;;;8.30;6.50;;;;;;;;;;6214817;23;20048;-89
2022/10/01 10:37:27;;;;;;;5.78;5.00;;;;;;;;;;6214821;23;20020;-89
2022/10/01 10:39:54;;;;;;;7.20;5.40;;;;;;;;;;6214277;23;20449;-89
2022/10/01 10:42:21;;;;;;;9.90;6.93;;;;;;;;;;6214813;23;20029;-89
2022/10/01 10:44:49;;;;;;;10.60;7.60;;;;;;;;;;6214620;23;20043;-89
2022/10/01 10:47:16;;;;;;;10.25;7.03;;;;;;;;;;6214253;23;20377;-90
2022/10/01 10:49:44;;;;;;;7.13;6.05;;;;;;;;;;6214455;23;20063;-90
2022/10/01 10:52:18;;;;;;;9.88;7.97;;;;;;;;;;6214441;23;20024;-89
2022/10/01 10:54:48;;;;;;;8.55;5.35;;;;;;;;;;6214495;23;20032;-90
2022/10/01 10:57:20;;;;;;;8.73;5.72;;;;;;;;;;6214325;23;20021;-90
2022/10/01 10:59:54;;;;;;;9.40;6.25;;;;;;;;;;6214901;23;20020;-89
2022/10/01 11:02:24;;;;;;;9.57;6.82;;;;;;;;;;6214442;23;20074;-90
2022/10/01 11:04:51;;;;;;;10.00;5.85;;;;;;;;;;6213716;23;20024;-91
2022/10/01 11:07:19;;;;;;;4.57;3.63;;;;;;;;;;6214315;23;20319;-89
2022/10/01 11:09:59;;;;;;;8.85;5.22;;;;;;;;;;6213746;23;20078;-89
2022/10/01 11:12:33;;;;;;;6.65;4.82;;;;;;;;;;6213270;23;20025;-89
2022/10/01 11:15:08;;;;;;;8.73;5.03;;;;;;;;;;6214381;23;20048;-88
2022/10/01 11:17:54;;;;;;;7.43;5.38;;;;;;;;;;6213640;23;20330;-88
2022/10/01 11:20:26;;;;;;;6.70;4.60;;;;;;;;;;6213427;23;20048;-88
2022/10/01 11:22:59;;;;;;;6.00;5.28;;;;;;;;;;6214035;23;20020;-88
2022/10/01 11:25:33;;;;;;;8.60;5.20;;;;;;;;;;6213786;23;20380;-88
2022/10/01 11:28:05;;;;;;;6.63;5.43;;;;;;;;;;6214139;23;20106;-89
2022/10/01 11:33:02;;;;;;;8.15;5.28;;;;;;;;;;6194908;22;20094;-89
2022/10/01 11:35:36;;;;;;;6.82;5.85;;;;;;;;;;6216508;23;20097;-88
2022/10/01 11:38:17;;;;;;;6.15;4.85;;;;;;;;;;6217014;23;20462;-88
2022/10/01 11:40:47;;;;;;;7.45;5.57;;;;;;;;;;6217028;23;20118;-89
2022/10/01 11:43:16;;;;;;;10.43;5.93;;;;;;;;;;6217402;23;20103;-89
2022/10/01 11:45:45;;;;;;;6.80;5.13;;;;;;;;;;6217142;23;20024;-89
2022/10/01 11:48:16;;;;;;;8.10;6.05;;;;;;;;;;6217440;23;20025;-88
2022/10/01 11:50:44;;;;;;;11.52;6.40;;;;;;;;;;6216899;23;20023;-88
2022/10/01 11:53:12;;;;;;;7.22;4.32;;;;;;;;;;6217289;23;20024;-89
2022/10/01 12:01:13;;;;;;;5.82;3.92;;;;;;;;;;6216972;23;20051;-89
2022/10/01 12:03:49;;;;;;;4.97;3.95;;;;;;;;;;6217448;23;20083;-89
2022/10/01 12:06:17;;;;;;;6.35;5.57;;;;;;;;;;6217204;23;20461;-89
2022/10/01 12:08:47;;;;;;;5.45;4.93;;;;;;;;;;6216866;23;20017;-89
2022/10/01 12:11:16;;;;;;;6.20;4.15;;;;;;;;;;6217224;23;20075;-88
2022/10/01 12:13:54;;;;;;;6.28;3.80;;;;;;;;;;6216820;23;20493;-91
2022/10/01 12:16:24;;;;;;;6.40;3.85;;;;;;;;;;6216881;23;20446;-89
2022/10/01 12:18:50;;;;;;;;;;;;;;;;;;6217985;23;20021;-89
2022/10/01 12:21:20;;;;;;;4.70;4.00;;;;;;;;;;6217283;23;19915;-90
2022/10/01 12:23:50;;;;;;;4.20;3.10;;;;;;;;;;6216978;23;20099;-90
2022/10/01 12:26:18;;;;;;;6.18;5.35;;;;;;;;;;6217455;23;20021;-90
2022/10/01 12:28:50;;;;;;;6.45;4.25;;;;;;;;;;6216711;23;20016;-90
2022/10/01 12:31:22;;;;;;;5.22;4.28;;;;;;;;;;6216419;23;20458;-90
2022/10/01 12:33:57;;;;;;;4.00;3.22;;;;;;;;;;6216292;23;20454;-89
2022/10/01 12:36:26;;;;;;;3.25;2.92;;;;;;;;;;6216775;23;20103;-90
2022/10/01 12:39:00;;;;;;;4.47;3.80;;;;;;;;;;6216461;23;20021;-90
2022/10/01 12:41:31;;;;;;;6.00;3.72;;;;;;;;;;6216347;23;20028;-90
2022/10/01 12:44:04;;;;;;;7.25;5.22;;;;;;;;;;6216351;23;20458;-90
2022/10/01 12:46:36;;;;;;;8.23;2.78;;;;;;;;;;6216001;23;20447;-90
2022/10/01 12:49:06;;;;;;;4.63;4.22;;;;;;;;;;6216362;23;20043;-90
2022/10/01 12:51:41;;;;;;;4.68;3.88;;;;;;;;;;6216194;23;20055;-90
2022/10/01 12:54:19;;;;;;;4.93;3.20;;;;;;;;;;6216121;23;20032;-90
2022/10/01 12:56:50;;;;;;;5.82;2.63;;;;;;;;;;6216746;23;20055;-89
2022/10/01 12:59:34;;;;;;;4.03;2.90;;;;;;;;;;6216632;23;20021;-91
2022/10/01 13:12:39;;;;;;;3.17;2.20;;;;;;;;;;6213936;23;20043;-86
2022/10/01 13:15:11;;;;;;;4.10;3.20;;;;;;;;;;6214339;23;20043;-88
2022/10/01 13:17:41;;;;;;;4.80;3.20;;;;;;;;;;6214684;23;20079;-86
2022/10/01 13:20:14;;;;;;;5.47;4.07;;;;;;;;;;6214465;23;20129;-85
2022/10/01 13:22:44;;;;;;;3.03;2.47;;;;;;;;;;6214480;23;20465;-88
2022/10/01 13:30:23;;;;;;;3.85;3.55;;;;;;;;;;6187166;22;20040;-90
2022/10/01 13:32:51;;;;;;;3.63;3.30;;;;;;;;;;6215767;23;20025;-88
2022/10/01 13:35:23;;;;;;;4.60;4.28;;;;;;;;;;6215134;23;20082;-92
2022/10/01 13:43:02;;;;;;;3.83;3.00;;;;;;;;;;6206922;22;20021;-93
2022/10/01 13:45:33;;;;;;;4.10;3.78;;;;;;;;;;6214444;22;20091;-93
2022/10/01 13:48:17;;;;;;;4.05;3.65;;;;;;;;;;6216161;23;20027;-91
2022/10/01 13:50:54;;;;;;;3.42;3.03;;;;;;;;;;6215397;23;20029;-94
2022/10/01 13:53:23;;;;;;;6.00;3.20;;;;;;;;;;6220672;23;20031;-95
2022/10/01 13:55:51;;;;;;;5.88;3.42;;;;;;;;;;6215946;23;20073;-95
2022/10/01 13:58:22;;;;;;;2.75;2.03;;;;;;;;;;6216217;23;20051;-93
2022/10/01 14:00:51;;;;;;;3.75;2.85;;;;;;;;;;6216299;23;20028;-94
2022/10/01 14:03:32;;;;;;;2.85;2.53;;;;;;;;;;6215418;23;20104;-93
2022/10/01 14:05:59;;;;;;;3.35;3.13;;;;;;;;;;6215276;23;20033;-93
2022/10/01 14:08:28;;;;;;;3.97;2.83;;;;;;;;;;6214241;23;20516;-93
2022/10/01 14:16:30;;;;;;;3.00;1.83;;;;;;;;;;6214488;23;20365;-92
2022/10/01 14:18:56;;;;;;;3.72;3.47;;;;;;;;;;6214243;23;20492;-92
2022/10/01 14:21:39;;;;;;;2.67;2.47;;;;;;;;;;6214183;23;20104;-92
2022/10/01 14:24:09;;;;;;;4.88;4.13;;;;;;;;;;6214399;23;20531;-92
2022/10/01 14:26:39;;;;;;;4.05;3.72;;;;;;;;;;6215009;23;20055;-92
2022/10/01 14:29:13;;;;;;;3.97;3.60;;;;;;;;;;6214313;23;20071;-92
2022/10/01 14:31:47;;;;;;;3.72;3.20;;;;;;;;;;6214353;23;20528;-92
2022/10/01 14:34:22;;;;;;;4.45;3.38;;;;;;;;;;6215553;23;20024;-92
2022/10/01 14:36:51;;;;;;;5.97;5.38;;;;;;;;;;6215558;23;20389;-92
2022/10/01 14:39:19;;;;;;;4.40;3.42;;;;;;;;;;6215063;23;20020;-91
2022/10/01 14:41:46;;;;;;;2.80;2.17;;;;;;;;;;6215145;23;20024;-93
2022/10/01 14:44:21;;;;;;;3.88;2.70;;;;;;;;;;6215501;23;20025;-93
2022/10/01 14:46:49;;;;;;;3.88;3.53;;;;;;;;;;6215459;23;20099;-93
2022/10/01 14:49:22;;;;;;;3.13;2.50;;;;;;;;;;6216269;23;20071;-94
2022/10/01 14:51:50;;;;;;;2.83;2.47;;;;;;;;;;6217278;23;20389;-93
2022/10/01 14:54:17;;;;;;;4.80;3.53;;;;;;;;;;6217204;23;20095;-93
2022/10/01 14:56:43;;;;;;;6.32;2.50;;;;;;;;;;6217389;23;20029;-92
2022/10/01 14:59:16;;;;;;;3.65;3.35;;;;;;;;;;6216333;23;20051;-92
2022/10/01 15:01:53;;;;;;;4.32;3.92;;;;;;;;;;6216330;23;20029;-92
2022/10/01 15:04:21;;;;;;;3.28;2.78;;;;;;;;;;6220048;23;20025;-93
2022/10/01 15:06:48;;;;;;;3.50;2.72;;;;;;;;;;6220251;23;20314;-93
2022/10/01 15:09:17;;;;;;;3.83;3.47;;;;;;;;;;6219449;23;20100;-92
2022/10/01 15:11:44;;;;;;;5.25;2.72;;;;;;;;;;6219877;23;20060;-91
2022/10/01 15:14:18;;;;;;;5.45;4.22;;;;;;;;;;6218127;23;20524;-92
2022/10/01 15:16:45;;;;;;;4.07;3.53;;;;;;;;;;6220109;23;20028;-92
2022/10/01 15:19:14;;;;;;;4.43;3.28;;;;;;;;;;6219496;23;20020;-92
2022/10/01 15:21:45;;;;;;;4.80;4.45;;;;;;;;;;6220741;23;20477;-93
2022/10/01 15:24:15;;;;;;;4.15;2.72;;;;;;;;;;6221601;23;20024;-92
2022/10/01 15:26:42;;;;;;;4.50;4.10;;;;;;;;;;6219998;23;20025;-93
2022/10/01 15:29:12;;;;;;;4.38;3.92;;;;;;;;;;6219837;23;20063;-92
2022/10/01 15:31:39;;;;;;;3.20;2.97;;;;;;;;;;6219838;23;20020;-92
2022/10/01 15:34:06;;;;;;;4.05;2.80;;;;;;;;;;6220459;23;20020;-92
2022/10/01 15:36:34;;;;;;;5.20;4.75;;;;;;;;;;6220833;23;20024;-92
2022/10/01 15:39:02;;;;;;;4.72;3.53;;;;;;;;;;6219077;23;20020;-92
2022/10/01 15:41:30;;;;;;;5.03;2.78;;;;;;;;;;6220499;23;20028;-92
2022/10/01 15:43:57;;;;;;;3.88;3.25;;;;;;;;;;6221804;23;20020;-92
2022/10/01 15:46:29;;;;;;;2.78;2.58;;;;;;;;;;6220015;23;20500;-92
2022/10/01 15:49:12;;;;;;;4.38;3.28;;;;;;;;;;6219491;23;20021;-93